Terminal Aerodrome Forecast
Issued by NWS Amarillo, TX

Home | Current Version | Previous Version | Text Only | Print | Product List | Glossary On
Versions: 1 2 3 4 5 6 7 8 9 10 11 12 13 14 15 16 17 18 19 20 21 22 23 24 25 26 27 28 29 30 31 32 33 34 35
000
FTUS44 KAMA 230500 RRA
TAFAMA
TAF
KAMA 230542Z 2306/2406 18011KT 4SM BR BKN008
     FM231000 VRB03KT 1SM BR FEW006
     FM231700 19012KT P6SM SCT035=

USA.gov is the U.S. government's official web portal to all federal, state and local government web resources and services.